createdAt,value
2023-03-30T00:01:17.715Z,-2.62
2023-03-30T00:03:48.083Z,-2.57
2023-03-30T00:06:23.593Z,-2.50
2023-03-30T00:08:57.337Z,-2.41
2023-03-30T00:11:27.151Z,-2.33
2023-03-30T00:13:55.698Z,-2.26
2023-03-30T00:16:24.103Z,-2.21
2023-03-30T00:18:52.544Z,-2.18
2023-03-30T00:21:21.431Z,-2.17
2023-03-30T00:23:50.495Z,-2.18
2023-03-30T00:26:19.209Z,-2.20
2023-03-30T00:28:47.384Z,-2.21
2023-03-30T00:31:15.781Z,-2.22
2023-03-30T00:33:47.048Z,-2.24
2023-03-30T00:36:17.266Z,-2.25
2023-03-30T00:38:46.445Z,-2.25
2023-03-30T00:41:16.147Z,-2.26
2023-03-30T00:44:06.029Z,-2.27
2023-03-30T00:46:35.083Z,-2.27
2023-03-30T00:49:09.481Z,-2.28
2023-03-30T00:51:42.759Z,-2.26
2023-03-30T00:54:17.052Z,-2.24
2023-03-30T00:56:46.318Z,-2.20
2023-03-30T00:59:14.930Z,-2.18
2023-03-30T01:01:50.122Z,-2.16
2023-03-30T01:04:19.098Z,-2.17
2023-03-30T01:06:49.068Z,-2.16
2023-03-30T01:09:18.487Z,-2.19
2023-03-30T01:11:47.152Z,-2.21
2023-03-30T01:14:16.977Z,-2.24
2023-03-30T01:17:01.785Z,-2.27
2023-03-30T01:19:45.592Z,-2.33
2023-03-30T01:22:37.112Z,-2.36
2023-03-30T01:25:50.755Z,-2.38
2023-03-30T01:28:36.128Z,-2.40
2023-03-30T01:31:12.584Z,-2.44
2023-03-30T01:34:08.830Z,-2.47
2023-03-30T01:36:51.547Z,-2.49
2023-03-30T01:39:27.332Z,-2.49
2023-03-30T01:42:04.789Z,-2.46
2023-03-30T01:44:41.777Z,-2.44
2023-03-30T01:47:18.344Z,-2.41
2023-03-30T01:49:59.725Z,-2.41
2023-03-30T01:52:53.956Z,-2.43
2023-03-30T01:55:47.380Z,-2.44
2023-03-30T01:58:37.982Z,-2.46
2023-03-30T02:01:10.153Z,-2.50
2023-03-30T02:03:43.324Z,-2.54
2023-03-30T02:06:20.659Z,-2.61
2023-03-30T02:08:50.768Z,-2.69
2023-03-30T02:11:19.227Z,-2.75
2023-03-30T02:13:47.916Z,-2.82
2023-03-30T02:16:22.787Z,-2.88
2023-03-30T02:18:51.738Z,-2.94
2023-03-30T02:21:20.013Z,-3.00
2023-03-30T02:23:49.009Z,-3.04
2023-03-30T02:26:17.492Z,-3.08
2023-03-30T02:28:47.302Z,-3.11
2023-03-30T02:31:17.076Z,-3.13
2023-03-30T02:33:57.064Z,-3.19
2023-03-30T02:36:42.001Z,-3.23
2023-03-30T02:39:28.955Z,-3.27
2023-03-30T02:41:57.327Z,-3.30
2023-03-30T02:44:48.235Z,-3.33
2023-03-30T02:47:37.145Z,-3.34
2023-03-30T02:50:31.489Z,-3.35
2023-03-30T02:53:23.490Z,-3.33
2023-03-30T02:56:04.274Z,-3.32
2023-03-30T02:58:48.022Z,-3.33
2023-03-30T03:01:28.638Z,-3.34
2023-03-30T03:04:04.419Z,-3.35
2023-03-30T03:06:40.514Z,-3.36
2023-03-30T03:09:09.458Z,-3.38
2023-03-30T03:11:37.911Z,-3.40
2023-03-30T03:14:08.102Z,-3.42
2023-03-30T03:16:36.411Z,-3.44
2023-03-30T03:19:13.673Z,-3.45
2023-03-30T03:21:42.350Z,-3.45
2023-03-30T03:24:13.521Z,-3.44
2023-03-30T03:27:02.714Z,-3.43
2023-03-30T03:29:35.213Z,-3.43
2023-03-30T03:32:04.033Z,-3.41
2023-03-30T03:34:39.714Z,-3.41
2023-03-30T03:37:08.564Z,-3.40
2023-03-30T03:39:37.765Z,-3.39
2023-03-30T03:42:11.683Z,-3.38
2023-03-30T03:44:47.938Z,-3.36
2023-03-30T03:47:17.029Z,-3.36
2023-03-30T03:49:45.820Z,-3.37
2023-03-30T03:52:14.000Z,-3.39
2023-03-30T03:54:42.578Z,-3.40
2023-03-30T03:57:11.498Z,-3.41
2023-03-30T03:59:39.956Z,-3.42
2023-03-30T04:02:08.273Z,-3.44
2023-03-30T04:04:36.575Z,-3.45
2023-03-30T04:07:05.809Z,-3.48
2023-03-30T04:09:34.197Z,-3.50
2023-03-30T04:12:02.771Z,-3.50
2023-03-30T04:14:39.134Z,-3.51
2023-03-30T04:17:15.068Z,-3.52
2023-03-30T04:20:12.965Z,-3.50
2023-03-30T04:23:02.147Z,-3.49
2023-03-30T04:25:52.097Z,-3.46
2023-03-30T04:29:00.433Z,-3.40
2023-03-30T04:31:48.660Z,-3.35
2023-03-30T04:34:31.289Z,-3.31
2023-03-30T04:37:07.675Z,-3.25
2023-03-30T04:40:13.361Z,-3.12
2023-03-30T04:43:04.545Z,-2.88
2023-03-30T04:45:53.451Z,-2.63
2023-03-30T04:48:40.095Z,-2.33
2023-03-30T04:51:35.095Z,-1.97
2023-03-30T04:54:33.251Z,-1.53
2023-03-30T04:57:21.207Z,-1.12
2023-03-30T05:00:13.806Z,-0.71
2023-03-30T05:02:42.234Z,-0.27
2023-03-30T05:05:43.494Z,0.22
2023-03-30T05:08:19.754Z,0.70
2023-03-30T05:11:08.511Z,1.00
2023-03-30T05:13:53.029Z,1.42
2023-03-30T05:16:34.392Z,1.77
2023-03-30T05:19:26.182Z,2.05
2023-03-30T05:22:21.387Z,2.32
2023-03-30T05:25:13.126Z,2.42
2023-03-30T05:28:01.463Z,2.45
2023-03-30T05:30:44.690Z,2.41
2023-03-30T05:33:48.815Z,2.40
2023-03-30T05:36:20.606Z,2.83
2023-03-30T05:39:11.677Z,4.06
2023-03-30T05:41:52.034Z,5.27
2023-03-30T05:44:27.889Z,6.41
2023-03-30T05:47:14.708Z,7.68
2023-03-30T05:49:58.132Z,8.91
2023-03-30T05:53:02.457Z,10.12
2023-03-30T05:55:49.787Z,10.97
2023-03-30T05:58:34.232Z,11.89
2023-03-30T06:01:09.678Z,12.64
2023-03-30T06:03:40.373Z,13.22
2023-03-30T06:06:10.127Z,13.76
2023-03-30T06:08:42.042Z,14.39
2023-03-30T06:11:13.839Z,14.82
2023-03-30T06:13:46.833Z,14.69
2023-03-30T06:16:15.868Z,14.86
2023-03-30T06:18:45.329Z,15.24
2023-03-30T06:21:15.978Z,15.53
2023-03-30T06:24:09.126Z,15.39
2023-03-30T06:26:38.931Z,15.46
2023-03-30T06:29:07.834Z,15.65
2023-03-30T06:31:36.749Z,16.09
2023-03-30T06:34:25.282Z,16.43
2023-03-30T06:36:54.069Z,16.58
2023-03-30T06:39:25.589Z,16.74
2023-03-30T06:41:54.197Z,16.85
2023-03-30T06:44:42.855Z,16.79
2023-03-30T06:47:15.321Z,16.87
2023-03-30T06:49:44.018Z,17.10
2023-03-30T06:52:46.388Z,17.39
2023-03-30T06:55:15.584Z,17.66
2023-03-30T06:57:43.968Z,17.77
2023-03-30T07:00:13.981Z,17.99
2023-03-30T07:02:44.950Z,18.17
2023-03-30T07:05:33.678Z,18.21
2023-03-30T07:08:25.097Z,18.37
2023-03-30T07:10:54.602Z,18.58
2023-03-30T07:13:24.414Z,18.54
2023-03-30T07:15:53.203Z,18.16
2023-03-30T07:18:21.583Z,17.89
2023-03-30T07:20:51.571Z,17.82
2023-03-30T07:23:22.238Z,17.58
2023-03-30T07:25:53.286Z,17.45
2023-03-30T07:28:26.036Z,17.70
2023-03-30T07:30:54.530Z,17.59
2023-03-30T07:33:23.762Z,17.47
2023-03-30T07:35:53.233Z,17.39
2023-03-30T07:38:25.000Z,17.54
2023-03-30T07:40:56.059Z,17.86
2023-03-30T07:43:27.322Z,17.83
2023-03-30T07:45:56.878Z,17.65
2023-03-30T07:48:31.022Z,17.27
2023-03-30T07:51:04.343Z,16.88
2023-03-30T07:53:34.421Z,16.90
2023-03-30T07:56:04.544Z,17.16
2023-03-30T07:58:40.507Z,17.38
2023-03-30T08:01:08.986Z,17.49
2023-03-30T08:03:57.486Z,17.54
2023-03-30T08:06:27.562Z,17.63
2023-03-30T08:08:58.702Z,17.83
2023-03-30T08:11:27.590Z,18.26
2023-03-30T08:13:55.962Z,18.36
2023-03-30T08:16:24.414Z,18.37
2023-03-30T08:18:55.016Z,17.83
2023-03-30T08:21:26.267Z,17.42
2023-03-30T08:23:58.084Z,17.68
2023-03-30T08:26:28.467Z,18.07
2023-03-30T08:28:57.555Z,18.22
2023-03-30T08:31:26.238Z,18.41
2023-03-30T08:33:54.772Z,18.79
2023-03-30T08:36:23.361Z,18.82
2023-03-30T08:38:54.259Z,18.44
2023-03-30T08:41:24.988Z,17.98
2023-03-30T08:43:54.742Z,17.85
2023-03-30T08:46:23.057Z,18.03
2023-03-30T08:48:54.066Z,18.21
2023-03-30T08:51:29.309Z,18.36
2023-03-30T08:54:05.673Z,18.53
2023-03-30T08:56:43.286Z,18.37
2023-03-30T08:59:37.649Z,18.51
2023-03-30T09:02:27.766Z,18.72
2023-03-30T09:05:02.198Z,18.83
2023-03-30T09:07:37.293Z,19.04
2023-03-30T09:10:12.589Z,19.26
2023-03-30T09:12:46.661Z,19.47
2023-03-30T09:15:22.918Z,19.67
2023-03-30T09:18:20.079Z,19.60
2023-03-30T09:20:52.457Z,19.39
2023-03-30T09:23:21.750Z,19.24
2023-03-30T09:26:12.074Z,19.29
2023-03-30T09:29:16.458Z,19.10
2023-03-30T09:32:21.693Z,18.97
2023-03-30T09:35:01.141Z,18.98
2023-03-30T09:37:30.676Z,18.97
2023-03-30T09:39:59.551Z,18.81
2023-03-30T09:43:16.377Z,18.82
2023-03-30T09:45:45.804Z,18.82
2023-03-30T09:48:16.492Z,18.88
2023-03-30T09:50:46.903Z,19.11
2023-03-30T09:53:26.799Z,19.27
2023-03-30T09:56:00.504Z,19.29
2023-03-30T09:58:34.276Z,19.34
2023-03-30T10:01:24.403Z,19.18
2023-03-30T10:04:11.129Z,19.10
2023-03-30T10:06:47.494Z,19.04
2023-03-30T10:09:21.495Z,18.97
2023-03-30T10:11:55.376Z,18.86
2023-03-30T10:14:37.364Z,18.76
2023-03-30T10:17:06.741Z,18.73
2023-03-30T10:19:38.446Z,18.81
2023-03-30T10:22:17.909Z,18.90
2023-03-30T10:24:55.575Z,18.78
2023-03-30T10:27:34.519Z,18.75
2023-03-30T10:30:11.267Z,18.57
2023-03-30T10:32:46.830Z,18.20
2023-03-30T10:35:22.350Z,17.84
2023-03-30T10:37:54.633Z,17.72
2023-03-30T10:40:36.811Z,17.60
2023-03-30T10:43:08.769Z,17.62
2023-03-30T10:45:44.758Z,17.77
2023-03-30T10:48:52.153Z,17.94
2023-03-30T10:51:31.339Z,18.09
2023-03-30T10:54:27.707Z,18.06
2023-03-30T10:57:03.415Z,18.10
2023-03-30T10:59:53.067Z,18.06
2023-03-30T11:02:46.666Z,17.99
2023-03-30T11:05:32.011Z,17.87
2023-03-30T11:08:04.455Z,17.81
2023-03-30T11:10:48.197Z,17.56
2023-03-30T11:13:35.388Z,17.46
2023-03-30T11:16:27.069Z,17.33
2023-03-30T11:19:12.763Z,17.13
2023-03-30T11:21:50.527Z,17.17
2023-03-30T11:24:21.779Z,17.09
2023-03-30T11:26:56.395Z,16.98
2023-03-30T11:29:53.604Z,16.97
2023-03-30T11:32:42.037Z,16.85
2023-03-30T11:35:30.266Z,16.84
2023-03-30T11:38:01.900Z,16.82
2023-03-30T11:40:43.982Z,16.78
2023-03-30T11:43:15.208Z,16.42
2023-03-30T11:46:00.723Z,16.41
2023-03-30T11:48:38.366Z,16.48
2023-03-30T11:51:24.731Z,16.47
2023-03-30T11:54:21.308Z,16.56
2023-03-30T11:56:58.568Z,16.61
2023-03-30T11:59:54.588Z,16.82
2023-03-30T12:02:36.747Z,16.97
2023-03-30T12:05:38.033Z,17.10
2023-03-30T12:08:18.503Z,17.13
2023-03-30T12:11:02.617Z,17.08
2023-03-30T12:13:44.575Z,17.04
2023-03-30T12:16:28.400Z,17.00
2023-03-30T12:19:15.704Z,16.95
2023-03-30T12:21:53.302Z,16.95
2023-03-30T12:24:43.799Z,16.99
2023-03-30T12:27:12.172Z,17.07
2023-03-30T12:30:02.429Z,17.17
2023-03-30T12:32:35.987Z,17.02
2023-03-30T12:35:43.093Z,16.96
2023-03-30T12:38:22.122Z,16.86
2023-03-30T12:41:14.764Z,16.83
2023-03-30T12:43:43.224Z,16.82
2023-03-30T12:46:26.633Z,16.84
2023-03-30T12:48:55.038Z,16.69
2023-03-30T12:51:58.842Z,16.53
2023-03-30T12:54:30.090Z,16.59
2023-03-30T12:56:58.284Z,16.66
2023-03-30T12:59:36.399Z,16.62
2023-03-30T13:02:33.926Z,16.52
2023-03-30T13:05:03.219Z,16.46
2023-03-30T13:07:36.382Z,16.38
2023-03-30T13:10:30.211Z,16.16
2023-03-30T13:13:00.275Z,16.00
2023-03-30T13:15:47.225Z,16.03
2023-03-30T13:18:40.966Z,16.07
2023-03-30T13:21:24.802Z,16.23
2023-03-30T13:24:46.163Z,16.29
2023-03-30T13:27:14.453Z,16.45
2023-03-30T13:29:52.763Z,16.42
2023-03-30T13:32:39.354Z,16.38
2023-03-30T13:35:18.499Z,16.28
2023-03-30T13:38:21.174Z,16.35
2023-03-30T13:41:29.386Z,16.35
2023-03-30T13:44:03.403Z,16.32
2023-03-30T13:46:47.375Z,16.20
2023-03-30T13:49:50.902Z,16.19
2023-03-30T13:52:28.844Z,16.21
2023-03-30T13:54:58.120Z,16.09
2023-03-30T13:57:35.673Z,16.08
2023-03-30T14:00:28.696Z,15.96
2023-03-30T14:02:57.091Z,15.91
2023-03-30T14:05:28.032Z,15.94
2023-03-30T14:07:59.671Z,15.92
2023-03-30T14:10:29.236Z,15.76
2023-03-30T14:12:58.090Z,15.53
2023-03-30T14:15:37.899Z,15.28
2023-03-30T14:18:13.920Z,14.99
2023-03-30T14:20:50.139Z,14.79
2023-03-30T14:23:23.712Z,14.62
2023-03-30T14:26:01.297Z,14.42
2023-03-30T14:28:34.323Z,14.19
2023-03-30T14:31:11.545Z,14.00
2023-03-30T14:33:41.322Z,13.75
2023-03-30T14:36:12.759Z,13.49
2023-03-30T14:38:52.824Z,13.33
2023-03-30T14:41:27.749Z,13.18
2023-03-30T14:43:57.278Z,13.07
2023-03-30T14:46:32.913Z,13.00
2023-03-30T14:49:01.708Z,12.91
2023-03-30T14:51:40.643Z,12.82
2023-03-30T14:54:15.779Z,12.72
2023-03-30T14:56:58.984Z,12.66
2023-03-30T14:59:29.011Z,12.59
2023-03-30T15:01:58.353Z,12.51
2023-03-30T15:04:34.500Z,12.44
2023-03-30T15:07:05.864Z,12.39
2023-03-30T15:09:39.333Z,12.35
2023-03-30T15:12:08.629Z,12.30
2023-03-30T15:14:40.481Z,12.25
2023-03-30T15:17:18.489Z,12.20
2023-03-30T15:19:50.040Z,12.13
2023-03-30T15:22:27.179Z,12.05
2023-03-30T15:24:59.160Z,11.99
2023-03-30T15:27:28.152Z,11.92
2023-03-30T15:29:59.201Z,11.85
2023-03-30T15:32:40.143Z,11.77
2023-03-30T15:35:14.376Z,11.66
2023-03-30T15:37:57.025Z,11.59
2023-03-30T15:40:30.636Z,11.51
2023-03-30T15:43:16.717Z,11.44
2023-03-30T15:46:07.865Z,11.36
2023-03-30T15:48:51.316Z,11.30
2023-03-30T15:51:37.978Z,11.25
2023-03-30T15:54:21.612Z,11.20
2023-03-30T15:57:11.361Z,11.14
2023-03-30T15:59:52.579Z,11.08
2023-03-30T16:02:22.273Z,11.02
2023-03-30T16:04:51.859Z,10.98
2023-03-30T16:07:22.723Z,10.93
2023-03-30T16:09:51.728Z,10.88
2023-03-30T16:12:28.550Z,10.83
2023-03-30T16:14:58.773Z,10.77
2023-03-30T16:17:27.350Z,10.72
2023-03-30T16:19:55.904Z,10.65
2023-03-30T16:22:24.211Z,10.58
2023-03-30T16:24:53.464Z,10.50
2023-03-30T16:27:22.460Z,10.41
2023-03-30T16:29:50.708Z,10.32
2023-03-30T16:32:19.374Z,10.24
2023-03-30T16:34:47.601Z,10.15
2023-03-30T16:37:15.976Z,10.06
2023-03-30T16:39:46.910Z,9.98
2023-03-30T16:42:15.821Z,9.90
2023-03-30T16:44:44.244Z,9.81
2023-03-30T16:47:12.566Z,9.74
2023-03-30T16:49:40.842Z,9.67
2023-03-30T16:52:10.040Z,9.60
2023-03-30T16:54:38.524Z,9.52
2023-03-30T16:57:09.798Z,9.45
2023-03-30T16:59:38.558Z,9.37
2023-03-30T17:02:13.025Z,9.32
2023-03-30T17:04:45.677Z,9.26
2023-03-30T17:07:13.938Z,9.19
2023-03-30T17:09:42.212Z,9.14
2023-03-30T17:12:10.694Z,9.10
2023-03-30T17:14:42.560Z,9.05
2023-03-30T17:17:12.162Z,9.00
2023-03-30T17:19:41.000Z,8.95
2023-03-30T17:22:09.111Z,8.89
2023-03-30T17:24:37.198Z,8.83
2023-03-30T17:27:06.499Z,8.75
2023-03-30T17:29:35.043Z,8.69
2023-03-30T17:32:06.666Z,8.63
2023-03-30T17:34:34.822Z,8.56
2023-03-30T17:37:03.295Z,8.48
2023-03-30T17:39:31.794Z,8.40
2023-03-30T17:42:01.075Z,8.33
2023-03-30T17:44:29.657Z,8.26
2023-03-30T17:46:58.239Z,8.20
2023-03-30T17:49:26.616Z,8.13
2023-03-30T17:51:54.787Z,8.08
2023-03-30T17:54:24.097Z,8.02
2023-03-30T17:56:52.776Z,7.95
2023-03-30T17:59:21.269Z,7.88
2023-03-30T18:01:49.527Z,7.82
2023-03-30T18:04:17.714Z,7.76
2023-03-30T18:06:48.908Z,7.71
2023-03-30T18:09:17.363Z,7.64
2023-03-30T18:11:45.825Z,7.58
2023-03-30T18:14:14.217Z,7.51
2023-03-30T18:16:44.799Z,7.46
2023-03-30T18:19:14.148Z,7.40
2023-03-30T18:21:44.774Z,7.33
2023-03-30T18:24:12.941Z,7.27
2023-03-30T18:26:43.176Z,7.20
2023-03-30T18:29:22.298Z,7.11
2023-03-30T18:31:51.208Z,7.03
2023-03-30T18:34:19.775Z,6.94
2023-03-30T18:36:48.146Z,6.86
2023-03-30T18:39:20.141Z,6.78
2023-03-30T18:41:52.260Z,6.72
2023-03-30T18:44:20.863Z,6.65
2023-03-30T18:46:51.918Z,6.58
2023-03-30T18:49:23.978Z,6.50
2023-03-30T18:51:52.749Z,6.45
2023-03-30T18:54:21.138Z,6.39
2023-03-30T18:56:51.612Z,6.35
2023-03-30T18:59:23.116Z,6.30
2023-03-30T19:01:51.782Z,6.25
2023-03-30T19:04:19.972Z,6.19
2023-03-30T19:06:48.150Z,6.15
2023-03-30T19:09:16.732Z,6.11
2023-03-30T19:11:45.011Z,6.09
2023-03-30T19:14:13.184Z,6.08
2023-03-30T19:16:42.164Z,6.08
2023-03-30T19:19:14.911Z,6.10
2023-03-30T19:21:43.749Z,6.12
2023-03-30T19:24:14.072Z,6.15
2023-03-30T19:26:42.352Z,6.20
2023-03-30T19:29:11.183Z,6.26
2023-03-30T19:31:39.454Z,6.31
2023-03-30T19:34:07.902Z,6.36
2023-03-30T19:36:36.603Z,6.41
2023-03-30T19:39:05.064Z,6.46
2023-03-30T19:41:33.479Z,6.51
2023-03-30T19:44:01.930Z,6.55
2023-03-30T19:46:30.038Z,6.60
2023-03-30T19:48:58.488Z,6.64
2023-03-30T19:51:26.863Z,6.67
2023-03-30T19:53:57.247Z,6.69
2023-03-30T19:56:26.810Z,6.69
2023-03-30T19:58:55.276Z,6.67
2023-03-30T20:01:23.714Z,6.64
2023-03-30T20:03:52.383Z,6.59
2023-03-30T20:06:20.623Z,6.53
2023-03-30T20:08:49.025Z,6.48
2023-03-30T20:11:17.375Z,6.42
2023-03-30T20:13:46.175Z,6.37
2023-03-30T20:16:22.830Z,6.32
2023-03-30T20:18:55.425Z,6.28
2023-03-30T20:21:26.379Z,6.22
2023-03-30T20:23:58.730Z,6.18
2023-03-30T20:26:29.378Z,6.14
2023-03-30T20:28:57.433Z,6.11
2023-03-30T20:31:26.161Z,6.08
2023-03-30T20:33:54.805Z,6.05
2023-03-30T20:36:23.598Z,6.01
2023-03-30T20:38:52.176Z,5.97
2023-03-30T20:41:21.901Z,5.93
2023-03-30T20:43:56.974Z,5.90
2023-03-30T20:46:35.041Z,5.87
2023-03-30T20:49:04.029Z,5.85
2023-03-30T20:51:32.814Z,5.82
2023-03-30T20:54:01.411Z,5.80
2023-03-30T20:56:29.876Z,5.77
2023-03-30T20:58:58.474Z,5.75
2023-03-30T21:01:29.478Z,5.74
2023-03-30T21:03:59.662Z,5.71
2023-03-30T21:06:30.484Z,5.68
2023-03-30T21:09:01.852Z,5.65
2023-03-30T21:11:33.624Z,5.63
2023-03-30T21:14:02.239Z,5.61
2023-03-30T21:16:31.078Z,5.61
2023-03-30T21:18:59.539Z,5.59
2023-03-30T21:21:28.019Z,5.58
2023-03-30T21:23:57.547Z,5.59
2023-03-30T21:26:26.641Z,5.59
2023-03-30T21:28:55.883Z,5.60
2023-03-30T21:31:24.664Z,5.62
2023-03-30T21:33:53.586Z,5.65
2023-03-30T21:36:22.039Z,5.70
2023-03-30T21:38:50.973Z,5.73
2023-03-30T21:41:21.305Z,5.76
2023-03-30T21:43:49.741Z,5.80
2023-03-30T21:46:20.696Z,5.85
2023-03-30T21:48:53.693Z,5.90
2023-03-30T21:51:28.854Z,5.94
2023-03-30T21:53:58.237Z,5.98
2023-03-30T21:56:29.583Z,6.00
2023-03-30T21:58:59.187Z,6.03
2023-03-30T22:01:28.189Z,6.07
2023-03-30T22:03:56.945Z,6.11
2023-03-30T22:06:25.476Z,6.15
2023-03-30T22:08:53.950Z,6.16
2023-03-30T22:11:25.476Z,6.20
2023-03-30T22:13:55.492Z,6.24
2023-03-30T22:16:28.428Z,6.28
2023-03-30T22:18:57.284Z,6.31
2023-03-30T22:21:34.626Z,6.37
2023-03-30T22:24:04.792Z,6.47
2023-03-30T22:26:33.990Z,6.56
2023-03-30T22:29:02.374Z,6.65
2023-03-30T22:31:30.976Z,6.75
2023-03-30T22:33:59.651Z,6.84
2023-03-30T22:36:31.015Z,6.92
2023-03-30T22:39:01.103Z,6.96
2023-03-30T22:41:31.136Z,6.99
2023-03-30T22:43:59.509Z,7.00
2023-03-30T22:46:28.197Z,7.00
2023-03-30T22:48:56.761Z,6.99
2023-03-30T22:51:28.549Z,6.97
2023-03-30T22:53:58.785Z,6.95
2023-03-30T22:56:28.929Z,6.93
2023-03-30T22:58:59.095Z,6.89
2023-03-30T23:01:29.380Z,6.85
2023-03-30T23:03:59.661Z,6.80
2023-03-30T23:06:28.133Z,6.75
2023-03-30T23:08:56.403Z,6.70
2023-03-30T23:11:26.621Z,6.64
2023-03-30T23:13:55.816Z,6.58
2023-03-30T23:16:24.330Z,6.51
2023-03-30T23:18:52.494Z,6.46
2023-03-30T23:21:22.502Z,6.42
2023-03-30T23:23:51.176Z,6.33
2023-03-30T23:26:19.749Z,6.27
2023-03-30T23:28:48.046Z,6.19
2023-03-30T23:31:19.064Z,6.14
2023-03-30T23:33:47.350Z,6.08
2023-03-30T23:36:19.432Z,6.05
2023-03-30T23:38:48.391Z,6.01
2023-03-30T23:41:18.553Z,5.97
2023-03-30T23:43:47.741Z,5.91
2023-03-30T23:46:16.343Z,5.85
2023-03-30T23:48:44.600Z,5.81
2023-03-30T23:51:12.992Z,5.77
2023-03-30T23:53:41.876Z,5.75
2023-03-30T23:56:17.378Z,5.75
2023-03-30T23:58:46.521Z,5.75
